Time;durP1;ratioP1;P1;durP2;ratioP2;P2;SDS_P1;SDS_P2;PMS_P1;PMS_P2;Temp;Humidity;BMP_temperature;BMP_pressure;BME280_temperature;BME280_humidity;BME280_pressure;Samples;Min_cycle;Max_cycle;Signal;HPM_P1;HPM_P2
2022/06/25 00:01:28;;;;;;;11.53;10.43;;;22.00;1.00;;;;;;5032061;28;20455;-54
2022/06/25 00:03:54;;;;;;;12.00;11.10;;;21.90;1.00;;;;;;5035071;28;20446;-53
2022/06/25 00:06:20;;;;;;;11.97;11.00;;;21.80;1.00;;;;;;5034953;28;20220;-54
2022/06/25 00:08:46;;;;;;;12.00;10.80;;;21.80;1.00;;;;;;5033847;28;20474;-55
2022/06/25 00:13:58;;;;;;;12.00;11.00;;;21.80;1.00;;;;;;5028858;28;20477;-55
2022/06/25 00:16:24;;;;;;;11.70;10.80;;;21.80;1.00;;;;;;5036217;28;20469;-56
2022/06/25 00:18:50;;;;;;;10.93;10.03;;;21.90;1.00;;;;;;5031067;28;20660;-54
2022/06/25 00:21:18;;;;;;;12.03;11.13;;;21.90;1.00;;;;;;5041169;28;20188;-54
2022/06/25 00:23:44;;;;;;;12.50;11.50;;;22.00;1.00;;;;;;5038216;28;20313;-55
2022/06/25 00:26:09;;;;;;;12.03;11.13;;;22.00;1.00;;;;;;5031230;28;20470;-56
2022/06/25 00:28:35;;;;;;;11.70;10.87;;;22.00;1.00;;;;;;5032979;28;20185;-53
2022/06/25 00:31:00;;;;;;;12.20;11.00;;;22.00;1.00;;;;;;5037120;28;20262;-55
2022/06/25 00:33:26;;;;;;;12.20;11.10;;;22.00;1.00;;;;;;5038349;28;20622;-54
2022/06/25 00:35:52;;;;;;;12.60;11.70;;;22.00;1.00;;;;;;5034337;28;20669;-55
2022/06/25 00:38:17;;;;;;;11.97;11.00;;;22.10;1.00;;;;;;5030897;28;20239;-54
2022/06/25 00:40:43;;;;;;;12.57;11.57;;;22.10;1.00;;;;;;5033776;28;20215;-55
2022/06/25 00:43:08;;;;;;;12.90;11.80;;;21.90;1.00;;;;;;5046390;28;20212;-55
2022/06/25 00:45:34;;;;;;;12.40;11.50;;;21.90;1.00;;;;;;5033269;28;20655;-54
2022/06/25 00:47:59;;;;;;;12.60;11.60;;;21.90;1.00;;;;;;5031931;28;20180;-54
2022/06/25 00:50:25;;;;;;;13.57;12.17;;;21.90;1.00;;;;;;5044784;28;20172;-54
2022/06/25 00:52:54;;;;;;;12.80;11.80;;;21.90;1.00;;;;;;5033645;28;20208;-54
2022/06/25 00:55:23;;;;;;;14.20;13.00;;;22.00;1.00;;;;;;5034322;28;20191;-54
2022/06/25 00:57:50;;;;;;;12.87;11.77;;;22.00;1.00;;;;;;5031982;28;20782;-54
2022/06/25 01:00:20;;;;;;;11.73;10.93;;;22.00;1.00;;;;;;5031341;28;20446;-55
2022/06/25 01:02:46;;;;;;;12.60;11.50;;;21.90;1.00;;;;;;5030028;28;20450;-55
2022/06/25 01:05:14;;;;;;;12.90;11.83;;;21.90;1.00;;;;;;5031271;28;20463;-55
2022/06/25 01:07:44;;;;;;;13.10;12.07;;;21.80;1.00;;;;;;5030078;28;20486;-56
2022/06/25 01:10:12;;;;;;;13.17;11.73;;;21.90;1.00;;;;;;5034767;28;20840;-55
2022/06/25 01:12:37;;;;;;;13.07;11.87;;;21.90;1.00;;;;;;5041941;28;20417;-54
2022/06/25 01:15:23;;;;;;;12.80;11.73;;;21.90;1.00;;;;;;5035804;28;20858;-54
2022/06/25 01:17:52;;;;;;;12.53;11.50;;;21.90;1.00;;;;;;5037686;28;20200;-54
2022/06/25 01:20:21;;;;;;;11.97;10.97;;;22.00;1.00;;;;;;5031973;28;20524;-54
2022/06/25 01:22:47;;;;;;;13.10;12.00;;;22.00;1.00;;;;;;5028422;28;20482;-56
2022/06/25 01:25:15;;;;;;;13.93;12.13;;;22.00;1.00;;;;;;5031976;28;20856;-55
2022/06/25 01:27:41;;;;;;;10.53;9.83;;;22.10;1.00;;;;;;5044693;28;20446;-54
2022/06/25 01:30:09;;;;;;;11.87;10.87;;;22.00;1.00;;;;;;5040434;28;20451;-55
2022/06/25 01:32:35;;;;;;;11.30;10.50;;;21.90;1.00;;;;;;5032257;28;20181;-54
2022/06/25 01:35:00;;;;;;;12.43;11.43;;;22.00;1.00;;;;;;5028133;28;20429;-55
2022/06/25 01:37:26;;;;;;;12.57;11.67;;;22.10;1.00;;;;;;5028893;28;20199;-55
2022/06/25 01:39:56;;;;;;;13.20;12.10;;;22.10;1.00;;;;;;5032021;28;20569;-53
2022/06/25 01:45:08;;;;;;;11.97;10.97;;;22.20;1.00;;;;;;5033233;28;20469;-54
2022/06/25 01:47:34;;;;;;;12.90;11.70;;;22.20;1.00;;;;;;5030824;28;20446;-55
2022/06/25 01:49:59;;;;;;;13.13;11.93;;;22.20;1.00;;;;;;5032526;28;20446;-55
2022/06/25 01:52:25;;;;;;;13.20;11.93;;;22.20;1.00;;;;;;5031204;28;20270;-55
2022/06/25 01:54:51;;;;;;;13.27;12.17;;;22.10;1.00;;;;;;5038907;28;20772;-55
2022/06/25 01:57:16;;;;;;;13.53;12.20;;;22.00;1.00;;;;;;5029026;28;20212;-53
2022/06/25 01:59:43;;;;;;;13.00;11.67;;;22.00;1.00;;;;;;5029670;28;20193;-55
2022/06/25 02:02:09;;;;;;;13.97;12.70;;;22.00;1.00;;;;;;5030341;28;20234;-54
2022/06/25 02:04:38;;;;;;;13.70;12.37;;;22.00;1.00;;;;;;5030147;28;20483;-54
2022/06/25 02:07:03;;;;;;;12.07;10.97;;;22.10;1.00;;;;;;5030689;28;20212;-56
2022/06/25 02:09:29;;;;;;;13.77;12.47;;;22.00;1.00;;;;;;5029697;28;20490;-55
2022/06/25 02:11:55;;;;;;;13.80;12.37;;;22.00;1.00;;;;;;5042536;28;20177;-53
2022/06/25 02:14:20;;;;;;;13.97;12.67;;;22.10;1.00;;;;;;5031070;28;20192;-55
2022/06/25 02:16:46;;;;;;;13.13;11.87;;;22.20;1.00;;;;;;5027885;28;20227;-55
2022/06/25 02:19:11;;;;;;;14.10;12.70;;;22.30;1.00;;;;;;5031131;28;20189;-53
2022/06/25 02:21:37;;;;;;;13.07;11.80;;;22.20;1.00;;;;;;5028656;28;20196;-53
2022/06/25 02:24:03;;;;;;;14.27;12.87;;;22.20;1.00;;;;;;5030175;28;20307;-55
2022/06/25 02:26:28;;;;;;;12.23;11.10;;;22.10;1.00;;;;;;5038884;28;20664;-53
2022/06/25 02:28:54;;;;;;;12.70;11.60;;;22.10;1.00;;;;;;5029869;28;20447;-54
2022/06/25 02:31:20;;;;;;;13.10;11.90;;;;;;;;;;5030403;28;20676;-53
2022/06/25 02:33:45;;;;;;;12.67;11.67;;;22.00;1.00;;;;;;5028945;28;20195;-54
2022/06/25 02:36:11;;;;;;;12.87;11.77;;;22.00;1.00;;;;;;5030072;28;20534;-54
2022/06/25 02:38:37;;;;;;;12.83;11.73;;;22.10;1.00;;;;;;5030753;28;20185;-56
2022/06/25 02:41:02;;;;;;;13.10;11.90;;;22.00;1.00;;;;;;5034283;28;20609;-54
2022/06/25 02:43:28;;;;;;;12.60;11.43;;;22.00;1.00;;;;;;5028414;28;20674;-55
2022/06/25 02:45:53;;;;;;;12.93;11.63;;;21.90;1.00;;;;;;5029920;28;20209;-55
2022/06/25 02:48:19;;;;;;;13.00;11.87;;;21.90;1.00;;;;;;5039874;28;20196;-55
2022/06/25 02:50:44;;;;;;;13.37;12.17;;;21.90;1.00;;;;;;5039174;28;20238;-53
2022/06/25 02:53:10;;;;;;;13.40;12.10;;;21.90;1.00;;;;;;5034362;28;20192;-55
2022/06/25 03:03:33;;;;;;;13.00;11.83;;;22.00;1.00;;;;;;5030668;28;20921;-55
2022/06/25 03:05:58;;;;;;;12.60;11.40;;;22.00;1.00;;;;;;5040846;28;20477;-54
2022/06/25 03:08:24;;;;;;;12.80;11.70;;;22.00;1.00;;;;;;5039352;28;20196;-55
2022/06/25 03:10:50;;;;;;;15.03;12.20;;;21.90;1.00;;;;;;5030400;28;20192;-54
2022/06/25 03:13:15;;;;;;;13.27;12.17;;;21.90;1.00;;;;;;5032974;28;20190;-55
2022/06/25 03:15:41;;;;;;;12.67;11.47;;;21.90;1.00;;;;;;5032998;28;20188;-55
2022/06/25 03:18:07;;;;;;;12.80;11.77;;;21.80;1.00;;;;;;5036232;28;20216;-55
2022/06/25 03:20:33;;;;;;;14.37;11.80;;;21.80;1.00;;;;;;5027348;28;20192;-53
2022/06/25 03:22:59;;;;;;;12.63;11.53;;;21.80;1.00;;;;;;5030373;28;20428;-54
2022/06/25 03:25:24;;;;;;;9.83;8.90;;;21.80;1.00;;;;;;5029576;28;20477;-59
2022/06/25 03:27:50;;;;;;;12.17;9.57;;;21.90;1.00;;;;;;5025991;28;20185;-53
2022/06/25 03:30:16;;;;;;;10.57;9.63;;;21.90;1.00;;;;;;5032471;28;20446;-53
2022/06/25 03:32:42;;;;;;;11.50;10.30;;;21.90;1.00;;;;;;5026585;28;20292;-53
2022/06/25 03:35:08;;;;;;;10.40;9.50;;;21.90;1.00;;;;;;5032030;28;20192;-54
2022/06/25 03:37:33;;;;;;;10.90;9.90;;;22.10;1.00;;;;;;5028036;28;20342;-55
2022/06/25 03:39:59;;;;;;;16.07;10.00;;;22.10;1.00;;;;;;5032439;28;20246;-54
2022/06/25 03:42:25;;;;;;;9.70;8.80;;;22.10;1.00;;;;;;5035903;28;20234;-56
2022/06/25 03:44:51;;;;;;;9.47;8.53;;;22.40;1.00;;;;;;5037353;28;20669;-53
2022/06/25 03:47:16;;;;;;;10.77;7.50;;;22.40;1.00;;;;;;5039330;28;20443;-55
2022/06/25 03:49:42;;;;;;;9.53;7.33;;;22.30;1.00;;;;;;5027270;28;20775;-55
2022/06/25 03:52:08;;;;;;;9.77;8.13;;;22.30;1.00;;;;;;5033316;28;20457;-56
2022/06/25 03:54:35;;;;;;;8.07;7.27;;;22.40;1.00;;;;;;5030960;28;20685;-54
2022/06/25 03:57:01;;;;;;;8.27;7.07;;;22.40;1.00;;;;;;5036369;28;20457;-54
2022/06/25 03:59:28;;;;;;;9.87;7.33;;;22.40;1.00;;;;;;5033845;28;20470;-55
2022/06/25 04:01:54;;;;;;;7.70;7.10;;;23.80;1.00;;;;;;5032524;28;21263;-53
2022/06/25 04:04:20;;;;;;;9.27;8.37;;;22.40;1.00;;;;;;5042681;28;20443;-53
2022/06/25 04:06:46;;;;;;;8.60;7.90;;;22.50;1.00;;;;;;5039519;28;20536;-56
2022/06/25 04:09:11;;;;;;;9.53;7.70;;;22.40;1.00;;;;;;5030192;28;20180;-54
2022/06/25 04:11:37;;;;;;;8.60;7.73;;;22.40;1.00;;;;;;5034377;28;20538;-54
2022/06/25 04:14:04;;;;;;;11.17;9.97;;;22.60;1.00;;;;;;5032443;28;20213;-54
2022/06/25 04:16:30;;;;;;;10.93;7.57;;;22.50;1.00;;;;;;5031515;28;20185;-57
2022/06/25 04:18:56;;;;;;;10.00;7.60;;;22.40;1.00;;;;;;5028789;28;20446;-53
2022/06/25 04:21:21;;;;;;;8.33;6.63;;;22.50;1.00;;;;;;5032228;28;20196;-55
2022/06/25 04:23:47;;;;;;;8.87;8.00;;;22.40;1.00;;;;;;5032087;28;20565;-55
2022/06/25 04:26:13;;;;;;;8.13;7.40;;;;;;;;;;5033108;28;20240;-54
2022/06/25 04:31:24;;;;;;;7.20;6.60;;;22.50;1.00;;;;;;5045948;28;20441;-53
2022/06/25 04:33:49;;;;;;;7.27;6.30;;;22.60;1.00;;;;;;5038067;28;20526;-54
2022/06/25 04:36:15;;;;;;;6.80;6.20;;;22.60;1.00;;;;;;5036601;28;20267;-55
2022/06/25 04:38:40;;;;;;;7.60;6.67;;;22.60;1.00;;;;;;5031853;28;20227;-53
2022/06/25 04:41:09;;;;;;;9.17;6.20;;;22.50;1.00;;;;;;5035169;28;20208;-55
2022/06/25 04:43:35;;;;;;;7.40;6.60;;;22.40;1.00;;;;;;5040026;28;20299;-54
2022/06/25 04:46:00;;;;;;;7.63;6.60;;;22.30;1.00;;;;;;5039899;28;20496;-54
2022/06/25 04:48:26;;;;;;;7.47;6.60;;;22.40;1.00;;;;;;5041789;28;20219;-54
2022/06/25 04:50:51;;;;;;;10.33;6.00;;;22.50;1.00;;;;;;5029389;28;20181;-54
2022/06/25 04:53:17;;;;;;;6.43;5.70;;;22.40;1.00;;;;;;5031192;28;20192;-55
2022/06/25 04:55:43;;;;;;;7.77;6.43;;;22.50;1.00;;;;;;5039828;28;20714;-55
2022/06/25 04:58:09;;;;;;;6.50;5.50;;;22.50;1.00;;;;;;5031133;28;20181;-55
2022/06/25 05:00:35;;;;;;;7.13;5.20;;;22.50;1.00;;;;;;5028387;28;20598;-56
2022/06/25 05:03:00;;;;;;;7.23;5.00;;;22.50;1.00;;;;;;5043408;28;20447;-53
2022/06/25 05:05:26;;;;;;;6.83;5.20;;;22.70;1.00;;;;;;5037630;28;20204;-53
2022/06/25 05:07:51;;;;;;;8.33;5.80;;;22.50;1.00;;;;;;5035118;28;20655;-55
2022/06/25 05:10:17;;;;;;;5.53;4.80;;;22.50;1.00;;;;;;5038172;28;20196;-55
2022/06/25 05:15:27;;;;;;;10.20;5.30;;;22.50;1.00;;;;;;5037286;28;20223;-53
2022/06/25 05:17:52;;;;;;;5.40;4.80;;;22.30;1.00;;;;;;5032238;28;20454;-54
2022/06/25 05:20:18;;;;;;;5.37;4.87;;;22.30;1.00;;;;;;5030594;28;20242;-55
2022/06/25 05:22:44;;;;;;;6.20;4.70;;;22.30;1.00;;;;;;5031779;28;20196;-56
2022/06/25 05:25:09;;;;;;;5.73;4.80;;;22.20;1.00;;;;;;5031884;28;20323;-56
2022/06/25 05:27:35;;;;;;;7.63;4.73;;;22.30;1.00;;;;;;5031447;28;20185;-54
2022/06/25 05:30:01;;;;;;;8.40;4.60;;;22.30;1.00;;;;;;5041186;28;20481;-55
2022/06/25 05:32:26;;;;;;;7.20;4.93;;;22.40;1.00;;;;;;5030663;28;20189;-55
2022/06/25 05:34:52;;;;;;;7.87;4.70;;;22.30;1.00;;;;;;5032696;28;20180;-54
2022/06/25 05:37:18;;;;;;;7.63;4.20;;;22.30;1.00;;;;;;5029876;28;20193;-55
2022/06/25 05:39:43;;;;;;;5.50;5.00;;;22.40;1.00;;;;;;5026456;28;20646;-55
2022/06/25 05:42:09;;;;;;;5.80;5.10;;;22.40;1.00;;;;;;5041220;28;20211;-53
2022/06/25 05:44:35;;;;;;;5.27;4.87;;;22.20;1.00;;;;;;5033754;28;20657;-56
2022/06/25 05:47:01;;;;;;;5.60;4.67;;;22.20;1.00;;;;;;5031998;28;20474;-54
2022/06/25 05:49:26;;;;;;;6.90;4.90;;;22.10;1.00;;;;;;5026940;28;20447;-55
2022/06/25 05:51:52;;;;;;;6.20;4.43;;;22.20;1.00;;;;;;5037189;28;20333;-54
2022/06/25 05:54:18;;;;;;;5.07;4.57;;;22.50;1.00;;;;;;5034988;28;20188;-54
2022/06/25 05:56:43;;;;;;;5.17;4.63;;;22.60;1.00;;;;;;5031122;28;20187;-55
2022/06/25 05:59:09;;;;;;;6.87;4.57;;;22.50;1.00;;;;;;5031484;28;20288;-56
2022/06/25 06:01:34;;;;;;;5.53;4.37;;;22.60;1.00;;;;;;5037668;28;20626;-54
2022/06/25 06:04:00;;;;;;;7.93;4.63;;;22.50;1.00;;;;;;5032178;28;20228;-54
2022/06/25 06:06:25;;;;;;;5.53;4.50;;;22.70;1.00;;;;;;5031047;28;20681;-55
2022/06/25 06:08:51;;;;;;;10.03;4.30;;;22.80;1.00;;;;;;5029523;28;20654;-55
2022/06/25 06:11:17;;;;;;;4.33;3.93;;;23.00;1.00;;;;;;5030645;28;20255;-54
2022/06/25 06:13:42;;;;;;;5.00;4.50;;;23.00;1.00;;;;;;5029270;28;20189;-54
2022/06/25 06:16:08;;;;;;;6.10;4.80;;;23.10;1.00;;;;;;5030913;28;20200;-55
2022/06/25 06:18:33;;;;;;;6.27;4.77;;;23.10;1.00;;;;;;5029326;28;20227;-56
2022/06/25 06:20:59;;;;;;;5.57;5.17;;;23.10;1.00;;;;;;5028229;28;20615;-54
2022/06/25 06:23:25;;;;;;;4.77;4.20;;;23.40;1.00;;;;;;5036203;28;20257;-54
2022/06/25 06:25:50;;;;;;;5.77;5.10;;;23.40;1.00;;;;;;5026727;28;20282;-56
2022/06/25 06:28:16;;;;;;;6.50;4.10;;;23.10;1.00;;;;;;5030377;28;20210;-55
2022/06/25 06:30:42;;;;;;;4.60;4.20;;;23.10;1.00;;;;;;5027669;28;20196;-55
2022/06/25 06:33:08;;;;;;;8.47;4.17;;;23.30;1.00;;;;;;5030975;28;20223;-56
2022/06/25 06:35:34;;;;;;;4.77;4.37;;;23.40;1.00;;;;;;5044024;28;20447;-55
2022/06/25 06:37:59;;;;;;;5.47;4.57;;;23.50;1.00;;;;;;5041003;28;20676;-55
2022/06/25 06:40:25;;;;;;;6.90;4.30;;;23.70;1.00;;;;;;5030320;28;20189;-56
2022/06/25 06:42:51;;;;;;;6.20;4.67;;;23.60;1.00;;;;;;5034718;28;20258;-55
2022/06/25 06:45:16;;;;;;;5.20;4.80;;;23.40;1.00;;;;;;5036146;28;20308;-55
2022/06/25 06:47:42;;;;;;;5.37;3.87;;;23.50;1.00;;;;;;5027595;28;20192;-53
2022/06/25 06:50:10;;;;;;;5.17;4.77;;;23.60;1.00;;;;;;5033163;28;20200;-55
2022/06/25 06:52:36;;;;;;;7.00;4.70;;;23.60;1.00;;;;;;5037316;28;20563;-54
2022/06/25 06:55:04;;;;;;;5.50;4.00;;;23.60;1.00;;;;;;5029031;28;20470;-54
2022/06/25 06:57:31;;;;;;;4.13;3.83;;;23.70;1.00;;;;;;5033778;28;20503;-52
2022/06/25 06:59:58;;;;;;;5.40;4.20;;;23.90;1.00;;;;;;5031202;28;21002;-57
2022/06/25 07:02:25;;;;;;;5.33;3.97;;;24.20;1.00;;;;;;5033915;28;21011;-54
2022/06/25 07:04:52;;;;;;;5.30;4.80;;;24.30;1.00;;;;;;5029398;28;20442;-55
2022/06/25 07:07:18;;;;;;;5.43;3.90;;;24.20;1.00;;;;;;5035581;28;20549;-53
2022/06/25 07:09:43;;;;;;;4.87;3.80;;;24.20;1.00;;;;;;5033595;28;20451;-55
2022/06/25 07:12:09;;;;;;;4.77;4.37;;;24.10;1.00;;;;;;5030315;28;21007;-54
2022/06/25 07:14:35;;;;;;;4.50;4.10;;;23.70;1.00;;;;;;5030236;28;20212;-55
2022/06/25 07:17:00;;;;;;;4.20;3.80;;;23.80;1.00;;;;;;5036319;28;20661;-56
2022/06/25 07:19:26;;;;;;;5.10;4.17;;;23.80;1.00;;;;;;5029354;28;20204;-54
2022/06/25 07:21:54;;;;;;;5.13;4.63;;;23.80;1.00;;;;;;5030190;28;20197;-55
2022/06/25 07:24:20;;;;;;;5.83;4.93;;;;;;;;;;5027791;28;20729;-56
2022/06/25 07:26:46;;;;;;;4.27;3.63;;;24.10;1.00;;;;;;5026442;28;20507;-55
2022/06/25 07:29:11;;;;;;;5.37;4.97;;;24.10;1.00;;;;;;5028858;28;20535;-55
2022/06/25 07:31:37;;;;;;;4.73;4.33;;;24.40;1.00;;;;;;5025536;28;20315;-54
2022/06/25 07:34:03;;;;;;;5.23;4.50;;;24.60;1.00;;;;;;5032789;28;20680;-53
2022/06/25 07:36:28;;;;;;;6.53;4.00;;;24.60;1.00;;;;;;5035983;28;20215;-54
2022/06/25 07:38:54;;;;;;;4.47;4.17;;;24.70;1.00;;;;;;5031675;28;20678;-55
2022/06/25 07:41:20;;;;;;;5.10;4.67;;;24.90;1.00;;;;;;5024863;28;20448;-54
2022/06/25 07:43:45;;;;;;;5.90;5.30;;;25.10;1.00;;;;;;5031800;28;20279;-54
2022/06/25 07:46:11;;;;;;;5.13;4.67;;;25.10;1.00;;;;;;5025984;28;20216;-54
2022/06/25 07:48:37;;;;;;;5.13;4.40;;;25.00;1.00;;;;;;5028901;28;20224;-55
2022/06/25 07:53:47;;;;;;;8.90;5.40;;;24.90;1.00;;;;;;5028236;28;20450;-55
2022/06/25 07:56:13;;;;;;;5.33;4.83;;;24.90;1.00;;;;;;5028126;28;20443;-53
2022/06/25 07:58:39;;;;;;;5.20;4.70;;;25.00;1.00;;;;;;5026737;28;20267;-54
2022/06/25 08:01:11;;;;;;;5.30;4.80;;;24.80;1.00;;;;;;5031168;28;20196;-55
2022/06/25 08:03:36;;;;;;;5.57;5.17;;;25.10;1.00;;;;;;5025950;28;20262;-53
2022/06/25 08:06:02;;;;;;;5.10;4.80;;;25.30;1.00;;;;;;5036115;28;20450;-55
2022/06/25 08:08:28;;;;;;;5.80;5.27;;;25.30;1.00;;;;;;5031303;28;20199;-55
2022/06/25 08:10:54;;;;;;;5.37;4.97;;;25.20;1.00;;;;;;5027198;28;20242;-55
2022/06/25 08:13:20;;;;;;;5.83;5.00;;;25.00;1.00;;;;;;5032613;28;20446;-54
2022/06/25 08:15:45;;;;;;;4.63;4.20;;;24.90;1.00;;;;;;5027791;28;20199;-53
2022/06/25 08:18:11;;;;;;;4.27;3.97;;;24.90;1.00;;;;;;5024133;28;20945;-56
2022/06/25 08:20:37;;;;;;;5.60;4.20;;;25.10;1.00;;;;;;5029659;28;20181;-53
2022/06/25 08:23:02;;;;;;;4.07;3.77;;;25.60;1.00;;;;;;5028657;28;20212;-54
2022/06/25 08:25:28;;;;;;;5.17;4.70;;;25.90;1.00;;;;;;5038034;28;20578;-56
2022/06/25 08:27:54;;;;;;;6.00;4.30;;;25.60;1.00;;;;;;5024676;28;20188;-55
2022/06/25 08:30:21;;;;;;;6.10;4.77;;;25.20;1.00;;;;;;5029166;28;20695;-54
2022/06/25 08:32:47;;;;;;;4.90;4.50;;;25.10;1.00;;;;;;5027545;28;20426;-56
2022/06/25 08:35:15;;;;;;;4.63;4.23;;;25.10;1.00;;;;;;5025853;28;20433;-55
2022/06/25 08:37:45;;;;;;;3.87;3.53;;;25.00;1.00;;;;;;5027694;28;20458;-54
2022/06/25 08:40:10;;;;;;;4.37;3.97;;;25.00;1.00;;;;;;5031484;28;20430;-54
2022/06/25 08:42:36;;;;;;;4.60;4.27;;;25.10;1.00;;;;;;5029660;28;20462;-55
2022/06/25 08:45:03;;;;;;;4.90;3.83;;;25.10;1.00;;;;;;5032002;28;20188;-55
2022/06/25 08:47:28;;;;;;;4.80;3.87;;;25.00;1.00;;;;;;5029847;28;20462;-55
2022/06/25 08:49:54;;;;;;;6.60;4.70;;;24.90;1.00;;;;;;5032685;28;20443;-55
2022/06/25 08:52:21;;;;;;;4.30;3.90;;;24.90;1.00;;;;;;5032491;28;20215;-55
2022/06/25 08:54:48;;;;;;;4.70;4.30;;;24.60;1.00;;;;;;5047835;28;20514;-58
2022/06/25 08:57:14;;;;;;;4.83;4.43;;;24.60;1.00;;;;;;5031236;28;20426;-55
2022/06/25 08:59:42;;;;;;;4.57;4.17;;;24.60;1.00;;;;;;5031908;28;20422;-55
2022/06/25 09:02:08;;;;;;;4.93;4.33;;;24.50;1.00;;;;;;5032080;28;20449;-56
2022/06/25 09:04:33;;;;;;;4.90;4.50;;;24.50;1.00;;;;;;5032453;28;20435;-55
2022/06/25 09:07:17;;;;;;;5.10;4.47;;;24.70;1.00;;;;;;5034134;28;20219;-57
2022/06/25 09:09:47;;;;;;;4.40;4.00;;;24.80;1.00;;;;;;5031209;28;20661;-56
2022/06/25 09:12:14;;;;;;;4.50;4.10;;;24.90;1.00;;;;;;5031964;28;20869;-56
2022/06/25 09:14:40;;;;;;;5.27;4.70;;;24.90;1.00;;;;;;5032326;28;20533;-55
2022/06/25 09:17:12;;;;;;;4.53;4.10;;;24.70;1.00;;;;;;5031604;28;20455;-55
2022/06/25 09:19:43;;;;;;;8.60;4.77;;;24.70;1.00;;;;;;5032623;28;20455;-54
2022/06/25 09:22:21;;;;;;;4.80;4.20;;;24.70;1.00;;;;;;5026930;28;20433;-56
2022/06/25 09:24:58;;;;;;;7.33;4.57;;;24.70;1.00;;;;;;5030482;28;20556;-56
2022/06/25 09:27:38;;;;;;;4.90;4.50;;;24.80;1.00;;;;;;5031863;28;20475;-56
2022/06/25 09:30:13;;;;;;;5.40;4.90;;;24.70;1.00;;;;;;5025984;28;20463;-56
2022/06/25 09:32:45;;;;;;;5.60;3.57;;;24.60;1.00;;;;;;5029769;28;21016;-56
2022/06/25 09:35:12;;;;;;;4.73;4.33;;;24.50;1.00;;;;;;5028090;28;20479;-54
2022/06/25 09:37:39;;;;;;;4.97;4.47;;;24.50;1.00;;;;;;5037000;28;20413;-54
2022/06/25 09:40:05;;;;;;;6.83;4.33;;;24.60;1.00;;;;;;5031213;28;20446;-53
2022/06/25 09:42:33;;;;;;;5.13;4.73;;;24.90;1.00;;;;;;5029652;28;20785;-56
2022/06/25 09:45:09;;;;;;;6.37;4.70;;;24.90;1.00;;;;;;5030088;28;20461;-56
2022/06/25 09:47:46;;;;;;;4.83;4.43;;;25.10;1.00;;;;;;5037399;28;20449;-56
2022/06/25 09:50:19;;;;;;;4.70;4.30;;;25.50;1.00;;;;;;5035715;28;20415;-55
2022/06/25 09:52:56;;;;;;;9.00;6.57;;;25.50;1.00;;;;;;5029223;28;20440;-55
2022/06/25 09:55:26;;;;;;;6.30;5.40;;;25.40;1.00;;;;;;5026754;28;20446;-56
2022/06/25 09:57:52;;;;;;;5.23;4.10;;;25.50;1.00;;;;;;5028695;28;20972;-54
2022/06/25 10:00:22;;;;;;;4.63;4.20;;;25.60;1.00;;;;;;5030832;28;20812;-54
2022/06/25 10:02:50;;;;;;;6.70;5.17;;;25.80;1.00;;;;;;5031642;28;20449;-54
2022/06/25 10:05:43;;;;;;;7.43;6.80;;;25.80;1.00;;;;;;5018211;28;20972;-56
2022/06/25 10:08:11;;;;;;;6.70;6.10;;;25.80;1.00;;;;;;5026790;28;20462;-55
2022/06/25 10:10:41;;;;;;;5.80;4.63;;;25.60;1.00;;;;;;5029091;28;20508;-52
2022/06/25 10:13:07;;;;;;;6.93;5.43;;;25.60;1.00;;;;;;5028874;28;20538;-57
2022/06/25 10:15:34;;;;;;;5.60;5.07;;;25.60;1.00;;;;;;5030954;28;20494;-56
2022/06/25 10:18:03;;;;;;;9.47;5.17;;;25.80;1.00;;;;;;5031198;28;20995;-55
2022/06/25 10:20:29;;;;;;;6.50;5.63;;;26.00;1.00;;;;;;5042372;28;20485;-54
2022/06/25 10:22:56;;;;;;;4.73;4.33;;;26.40;1.00;;;;;;5044311;28;20797;-54
2022/06/25 10:25:23;;;;;;;6.37;5.87;;;26.70;1.00;;;;;;5028284;28;20505;-53
2022/06/25 10:27:51;;;;;;;6.70;6.07;;;26.60;1.00;;;;;;5030450;28;20413;-53
2022/06/25 10:30:47;;;;;;;5.17;4.77;;;26.40;1.00;;;;;;5030774;28;20777;-54
2022/06/25 10:33:16;;;;;;;6.10;5.57;;;26.40;1.00;;;;;;5029813;28;20429;-52
2022/06/25 10:35:44;;;;;;;5.30;4.90;;;26.30;1.00;;;;;;5038827;28;20494;-53
2022/06/25 10:38:13;;;;;;;5.27;4.87;;;26.40;1.00;;;;;;5030259;28;20500;-54
2022/06/25 10:40:57;;;;;;;5.53;4.93;;;26.50;1.00;;;;;;5030116;28;20470;-56
2022/06/25 10:43:54;;;;;;;5.67;5.07;;;26.50;1.00;;;;;;5028513;28;20447;-53
2022/06/25 10:46:33;;;;;;;6.47;5.93;;;26.60;1.00;;;;;;5028671;28;20875;-54
2022/06/25 10:49:17;;;;;;;7.03;6.37;;;26.70;1.00;;;;;;5030275;28;20436;-56
2022/06/25 10:51:44;;;;;;;6.63;6.23;;;26.70;1.00;;;;;;5028657;28;21000;-55
2022/06/25 10:54:22;;;;;;;6.00;5.60;;;26.80;1.00;;;;;;5026498;28;20442;-55
2022/06/25 10:56:49;;;;;;;6.57;6.03;;;26.80;1.00;;;;;;5026186;28;20546;-55
2022/06/25 10:59:34;;;;;;;6.47;5.93;;;26.70;1.00;;;;;;5030235;28;20447;-54
2022/06/25 11:02:05;;;;;;;5.87;5.30;;;26.90;1.00;;;;;;5028274;28;20505;-55
2022/06/25 11:04:32;;;;;;;6.77;6.20;;;27.00;1.00;;;;;;5028428;28;20447;-54
2022/06/25 11:07:20;;;;;;;6.87;6.37;;;27.30;1.00;;;;;;5029560;28;20558;-51
2022/06/25 11:10:00;;;;;;;7.00;6.50;;;27.50;1.00;;;;;;5035046;28;20442;-53
2022/06/25 11:12:28;;;;;;;6.50;5.90;;;27.40;1.00;;;;;;5030782;28;20550;-52
2022/06/25 11:15:02;;;;;;;6.70;6.03;;;27.50;1.00;;;;;;5044297;28;20410;-53
2022/06/25 11:17:28;;;;;;;6.17;5.77;;;;;;;;;;5027503;28;20455;-55
2022/06/25 11:20:00;;;;;;;7.20;6.60;;;27.90;1.00;;;;;;5028790;28;20451;-53
2022/06/25 11:22:26;;;;;;;6.77;6.27;;;28.00;1.00;;;;;;5041655;28;20409;-54
2022/06/25 11:30:20;;;;;;;6.50;6.10;;;28.20;1.00;;;;;;5029998;28;20431;-55
2022/06/25 11:32:46;;;;;;;7.73;7.10;;;28.10;1.00;;;;;;5049909;28;20540;-54
2022/06/25 11:35:12;;;;;;;7.10;6.50;;;27.80;1.00;;;;;;5039464;28;20470;-55
2022/06/25 11:37:38;;;;;;;7.23;6.60;;;27.70;1.00;;;;;;5034479;28;20231;-54
2022/06/25 11:40:13;;;;;;;6.83;6.43;;;27.80;1.00;;;;;;5029708;28;20524;-55
2022/06/25 11:42:39;;;;;;;6.70;6.30;;;27.90;1.00;;;;;;5028232;28;20184;-55
2022/06/25 11:45:06;;;;;;;7.50;6.90;;;28.10;1.00;;;;;;5034998;28;21001;-53
2022/06/25 11:47:31;;;;;;;7.73;7.20;;;28.00;1.00;;;;;;5038799;28;20208;-54
2022/06/25 11:49:57;;;;;;;7.70;7.10;;;28.00;1.00;;;;;;5029798;28;20450;-54
2022/06/25 11:52:25;;;;;;;7.90;7.20;;;28.00;1.00;;;;;;5049897;28;20671;-54
2022/06/25 11:54:51;;;;;;;7.40;6.70;;;28.40;1.00;;;;;;5030735;28;20189;-58
2022/06/25 11:57:23;;;;;;;7.47;6.87;;;28.30;1.00;;;;;;5032665;28;20460;-54
2022/06/25 11:59:50;;;;;;;7.50;6.93;;;28.50;1.00;;;;;;5028078;28;20462;-57
2022/06/25 12:02:16;;;;;;;7.10;6.50;;;28.40;1.00;;;;;;5044465;28;20508;-56
2022/06/25 12:05:02;;;;;;;7.07;6.40;;;28.70;1.00;;;;;;5030535;28;20430;-55
2022/06/25 12:07:31;;;;;;;7.43;6.83;;;29.10;1.00;;;;;;5030612;28;20208;-53
2022/06/25 12:09:59;;;;;;;7.00;6.50;;;29.50;1.00;;;;;;5033195;28;20433;-53
2022/06/25 12:12:25;;;;;;;7.13;6.40;;;29.30;1.00;;;;;;5029688;28;20417;-53
2022/06/25 12:14:53;;;;;;;7.10;6.43;;;29.40;1.00;;;;;;5042835;28;20414;-54
2022/06/25 12:17:19;;;;;;;7.03;6.03;;;29.70;1.00;;;;;;5032969;28;20422;-53
2022/06/25 12:19:49;;;;;;;7.13;6.63;;;29.20;1.00;;;;;;5035849;28;20414;-54
2022/06/25 12:22:29;;;;;;;6.50;5.90;;;29.10;1.00;;;;;;5041836;28;20442;-56
2022/06/25 12:24:57;;;;;;;7.27;6.67;;;28.90;1.00;;;;;;5033050;28;20441;-55
2022/06/25 12:27:23;;;;;;;8.77;6.80;;;29.10;1.00;;;;;;5033112;28;20583;-55
2022/06/25 12:29:52;;;;;;;7.33;6.73;;;29.30;1.00;;;;;;5033091;28;20451;-55
2022/06/25 12:32:18;;;;;;;6.43;5.93;;;29.60;1.00;;;;;;5032445;28;20462;-55
2022/06/25 12:34:51;;;;;;;7.30;6.80;;;29.80;1.00;;;;;;5037726;28;20440;-54
2022/06/25 12:37:31;;;;;;;6.40;5.93;;;29.60;1.00;;;;;;5031482;28;20443;-54
2022/06/25 12:39:59;;;;;;;7.20;6.63;;;29.10;1.00;;;;;;5035351;28;20972;-55
2022/06/25 12:42:28;;;;;;;7.00;6.40;;;29.00;1.00;;;;;;5032824;28;20443;-55
2022/06/25 12:44:55;;;;;;;6.70;6.20;;;28.60;1.00;;;;;;5032871;28;20485;-54
2022/06/25 12:47:21;;;;;;;7.00;6.50;;;28.30;1.00;;;;;;5033286;28;20474;-56
2022/06/25 12:49:53;;;;;;;6.57;6.07;;;28.30;1.00;;;;;;5052662;28;20501;-53
2022/06/25 12:52:26;;;;;;;6.63;6.13;;;28.50;1.00;;;;;;5034542;28;20651;-54
2022/06/25 12:54:56;;;;;;;7.17;6.17;;;28.60;1.00;;;;;;5028720;28;20544;-54
2022/06/25 12:57:25;;;;;;;6.47;5.97;;;28.80;1.00;;;;;;5032111;28;20457;-54
2022/06/25 12:59:51;;;;;;;6.87;6.30;;;29.00;1.00;;;;;;5027597;28;20447;-52
2022/06/25 13:02:18;;;;;;;6.00;5.60;;;29.10;1.00;;;;;;5032315;28;20414;-52
2022/06/25 13:04:45;;;;;;;6.33;5.83;;;28.90;1.00;;;;;;5030702;28;20778;-54
2022/06/25 13:07:14;;;;;;;5.83;5.43;;;28.90;1.00;;;;;;5036950;28;20787;-55
2022/06/25 13:09:41;;;;;;;7.37;5.87;;;29.00;1.00;;;;;;5030295;28;20508;-54
2022/06/25 13:12:08;;;;;;;5.73;5.23;;;29.10;1.00;;;;;;5029297;28;20985;-52
2022/06/25 13:14:34;;;;;;;5.40;5.00;;;28.90;1.00;;;;;;5030280;28;20439;-54
2022/06/25 13:17:00;;;;;;;6.40;5.80;;;28.80;1.00;;;;;;5031833;28;20439;-56
2022/06/25 13:19:27;;;;;;;5.40;5.10;;;28.80;1.00;;;;;;5030708;28;20844;-54
2022/06/25 13:21:53;;;;;;;5.80;5.40;;;29.10;1.00;;;;;;5030949;28;20450;-54